createdAt,value
2018-07-27T00:02:26.001Z,57.12
2018-07-27T00:05:23.461Z,57.13
2018-07-27T00:08:20.804Z,57.28
2018-07-27T00:11:18.484Z,56.93
2018-07-27T00:14:15.915Z,56.84
2018-07-27T00:17:13.416Z,56.81
2018-07-27T00:20:10.816Z,57.44
2018-07-27T00:23:08.637Z,57.95
2018-07-27T00:26:05.704Z,58.46
2018-07-27T00:29:03.136Z,59.06
2018-07-27T00:32:00.416Z,58.83
2018-07-27T00:34:57.720Z,58.96
2018-07-27T00:37:55.130Z,59.23
2018-07-27T00:40:53.100Z,59.07
2018-07-27T00:43:51.071Z,58.85
2018-07-27T00:46:48.940Z,58.55
2018-07-27T00:49:45.991Z,58.71
2018-07-27T00:52:43.256Z,58.82
2018-07-27T00:55:40.362Z,59.05
2018-07-27T00:58:38.491Z,58.14
2018-07-27T01:01:35.635Z,58.38
2018-07-27T01:04:33.732Z,58.80
2018-07-27T01:07:31.307Z,59.09
2018-07-27T01:10:28.744Z,59.49
2018-07-27T01:13:26.736Z,60.55
2018-07-27T01:16:23.814Z,61.12
2018-07-27T01:19:21.397Z,60.23
2018-07-27T01:22:18.672Z,60.30
2018-07-27T01:25:15.725Z,59.74
2018-07-27T01:28:12.854Z,60.29
2018-07-27T01:31:10.786Z,60.49
2018-07-27T01:34:07.939Z,60.07
2018-07-27T01:37:05.320Z,60.71
2018-07-27T01:40:02.904Z,60.49
2018-07-27T01:43:00.625Z,60.14
2018-07-27T01:45:57.886Z,61.28
2018-07-27T01:48:55.252Z,61.64
2018-07-27T01:51:52.899Z,61.44
2018-07-27T01:54:50.999Z,60.84
2018-07-27T01:57:48.456Z,60.80
2018-07-27T02:00:45.818Z,62.24
2018-07-27T02:03:43.534Z,62.19
2018-07-27T02:06:41.428Z,62.28
2018-07-27T02:09:39.466Z,63.05
2018-07-27T02:12:36.899Z,63.16
2018-07-27T02:15:34.955Z,62.89
2018-07-27T02:18:32.432Z,62.79
2018-07-27T02:21:30.132Z,64.04
2018-07-27T02:24:27.330Z,63.14
2018-07-27T02:27:24.318Z,63.55
2018-07-27T02:30:21.391Z,64.16
2018-07-27T02:33:18.886Z,65.10
2018-07-27T02:36:16.839Z,64.21
2018-07-27T02:39:14.044Z,63.24
2018-07-27T02:42:11.529Z,63.61
2018-07-27T02:45:08.859Z,65.00
2018-07-27T02:48:06.652Z,65.53
2018-07-27T02:51:03.788Z,65.08
2018-07-27T02:54:01.075Z,65.31
2018-07-27T02:56:58.303Z,65.15
2018-07-27T02:59:55.200Z,64.26
2018-07-27T03:02:53.234Z,65.22
2018-07-27T03:05:51.100Z,64.60
2018-07-27T03:08:48.052Z,64.42
2018-07-27T03:11:45.106Z,65.10
2018-07-27T03:14:42.467Z,64.33
2018-07-27T03:17:39.618Z,65.08
2018-07-27T03:20:37.488Z,64.99
2018-07-27T03:23:35.256Z,66.11
2018-07-27T03:26:33.244Z,66.16
2018-07-27T03:29:31.440Z,66.52
2018-07-27T03:32:29.371Z,65.74
2018-07-27T03:35:26.772Z,66.49
2018-07-27T03:38:23.976Z,65.44
2018-07-27T03:41:22.990Z,65.29
2018-07-27T03:44:21.181Z,66.15
2018-07-27T03:47:18.443Z,66.58
2018-07-27T03:50:15.615Z,68.10
2018-07-27T03:53:12.943Z,66.81
2018-07-27T03:56:10.226Z,65.38
2018-07-27T03:59:07.353Z,63.20
2018-07-27T04:02:04.641Z,61.79
2018-07-27T04:05:01.900Z,60.50
2018-07-27T04:07:59.276Z,60.63
2018-07-27T04:10:56.632Z,59.75
2018-07-27T04:13:54.548Z,60.23
2018-07-27T04:16:52.656Z,59.28
2018-07-27T04:19:49.703Z,57.71
2018-07-27T04:22:46.681Z,56.49
2018-07-27T04:25:43.911Z,54.86
2018-07-27T04:28:41.679Z,54.31
2018-07-27T04:31:39.482Z,52.92
2018-07-27T04:34:36.624Z,53.32
2018-07-27T04:37:33.744Z,52.77
2018-07-27T04:40:30.903Z,50.72
2018-07-27T04:43:28.720Z,49.15
2018-07-27T04:46:25.895Z,49.15
2018-07-27T04:49:23.190Z,48.43
2018-07-27T04:52:20.366Z,48.13
2018-07-27T04:55:18.015Z,45.96
2018-07-27T04:58:16.224Z,44.65
2018-07-27T05:01:13.552Z,43.14
2018-07-27T05:04:10.724Z,42.38
2018-07-27T05:07:08.384Z,40.97
2018-07-27T05:10:05.763Z,43.09
2018-07-27T05:13:03.913Z,41.99
2018-07-27T05:16:01.507Z,40.89
2018-07-27T05:18:59.067Z,38.83
2018-07-27T05:21:56.719Z,39.16
2018-07-27T05:24:54.894Z,38.91
2018-07-27T05:27:51.932Z,37.67
2018-07-27T05:30:49.307Z,36.11
2018-07-27T05:33:46.630Z,34.74
2018-07-27T05:36:43.902Z,34.93
2018-07-27T05:39:41.720Z,34.34
2018-07-27T05:42:39.679Z,35.03
2018-07-27T05:45:37.333Z,35.46
2018-07-27T05:48:34.697Z,34.91
2018-07-27T05:51:32.287Z,33.32
2018-07-27T05:54:30.230Z,33.37
2018-07-27T05:57:27.543Z,31.90
2018-07-27T06:00:24.524Z,31.91
2018-07-27T06:03:21.689Z,32.03
2018-07-27T06:06:19.064Z,29.55
2018-07-27T06:09:17.243Z,29.50
2018-07-27T06:12:14.763Z,30.28
2018-07-27T06:15:12.907Z,28.89
2018-07-27T06:18:10.075Z,28.89
2018-07-27T06:21:07.777Z,30.10
2018-07-27T06:24:05.022Z,28.98
2018-07-27T06:27:02.980Z,28.00
2018-07-27T06:30:00.097Z,28.89
2018-07-27T06:32:57.961Z,28.04
2018-07-27T06:35:56.045Z,28.40
2018-07-27T06:38:53.320Z,27.53
2018-07-27T06:41:50.387Z,27.21
2018-07-27T06:44:48.458Z,27.07
2018-07-27T06:47:45.594Z,27.51
2018-07-27T06:50:43.258Z,28.39
2018-07-27T06:53:40.622Z,29.04
2018-07-27T06:56:38.351Z,27.17
2018-07-27T06:59:35.980Z,28.79
2018-07-27T07:02:33.883Z,30.11
2018-07-27T07:05:31.324Z,30.03
2018-07-27T07:08:28.858Z,29.69
2018-07-27T07:11:26.226Z,28.34
2018-07-27T07:14:23.364Z,28.05
2018-07-27T07:17:20.737Z,28.65
2018-07-27T07:20:17.923Z,29.23
2018-07-27T07:23:15.668Z,28.76
2018-07-27T07:26:13.262Z,28.71
2018-07-27T07:29:10.890Z,28.11
2018-07-27T07:32:08.016Z,27.69
2018-07-27T07:35:05.213Z,28.73
2018-07-27T07:38:02.235Z,27.25
2018-07-27T07:40:59.439Z,27.52
2018-07-27T07:43:57.017Z,27.69
2018-07-27T07:46:54.008Z,26.90
2018-07-27T07:49:51.496Z,26.17
2018-07-27T07:52:48.749Z,25.77
2018-07-27T07:55:45.799Z,26.10
2018-07-27T07:58:43.184Z,24.98
2018-07-27T08:01:40.715Z,23.72
2018-07-27T08:04:38.554Z,25.40
2018-07-27T08:07:35.605Z,24.20
2018-07-27T08:10:33.704Z,23.79
2018-07-27T08:13:31.896Z,23.72
2018-07-27T08:16:29.911Z,25.05
2018-07-27T08:19:27.148Z,24.47
2018-07-27T08:22:24.340Z,25.19
2018-07-27T08:25:22.396Z,22.67
2018-07-27T08:28:31.588Z,23.57
2018-07-27T08:31:28.914Z,23.29
2018-07-27T08:34:26.435Z,23.45
2018-07-27T08:37:23.468Z,23.33
2018-07-27T08:40:20.860Z,22.40
2018-07-27T08:43:18.907Z,24.04
2018-07-27T08:46:16.293Z,24.10
2018-07-27T08:49:13.616Z,25.46
2018-07-27T08:52:10.988Z,23.88
2018-07-27T08:55:15.355Z,22.13
2018-07-27T08:58:12.492Z,22.61
2018-07-27T09:01:14.940Z,24.95
2018-07-27T09:04:12.141Z,24.47
2018-07-27T09:07:10.298Z,26.46
2018-07-27T09:10:07.591Z,25.67
2018-07-27T09:13:04.871Z,26.27
2018-07-27T09:16:02.933Z,25.84
2018-07-27T09:19:01.012Z,25.71
2018-07-27T09:21:58.312Z,25.16
2018-07-27T09:24:56.268Z,23.86
2018-07-27T09:27:53.972Z,25.10
2018-07-27T09:30:51.194Z,26.06
2018-07-27T09:33:48.485Z,26.39
2018-07-27T09:36:45.847Z,26.53
2018-07-27T09:39:43.105Z,24.48
2018-07-27T09:42:40.372Z,24.04
2018-07-27T09:45:37.792Z,24.93
2018-07-27T09:48:35.347Z,25.05
2018-07-27T09:51:32.459Z,25.22
2018-07-27T09:54:30.117Z,24.93
2018-07-27T09:57:27.275Z,25.91
2018-07-27T10:01:28.323Z,25.35
2018-07-27T10:04:25.870Z,23.89
2018-07-27T10:07:23.818Z,23.82
2018-07-27T10:10:21.849Z,23.94
2018-07-27T10:13:19.947Z,23.53
2018-07-27T10:16:17.410Z,24.00
2018-07-27T10:19:15.628Z,22.87
2018-07-27T10:22:12.976Z,23.17
2018-07-27T10:25:10.588Z,24.49
2018-07-27T10:28:08.097Z,24.64
2018-07-27T10:31:05.971Z,23.35
2018-07-27T10:34:04.077Z,24.43
2018-07-27T10:37:01.218Z,22.85
2018-07-27T10:39:59.228Z,22.99
2018-07-27T10:42:56.383Z,24.00
2018-07-27T10:45:53.523Z,23.60
2018-07-27T10:48:50.582Z,22.81
2018-07-27T10:51:48.256Z,24.00
2018-07-27T10:54:45.367Z,23.26
2018-07-27T10:57:42.436Z,23.49
2018-07-27T11:00:40.521Z,23.03
2018-07-27T11:03:38.380Z,23.23
2018-07-27T11:06:36.133Z,23.04
2018-07-27T11:09:33.453Z,22.60
2018-07-27T11:12:30.780Z,22.92
2018-07-27T11:15:27.871Z,23.84
2018-07-27T11:18:24.896Z,23.11
2018-07-27T11:21:21.868Z,21.85
2018-07-27T11:24:19.876Z,23.27
2018-07-27T11:27:17.987Z,24.75
2018-07-27T11:30:15.940Z,23.52
2018-07-27T11:33:13.943Z,23.17
2018-07-27T11:36:11.275Z,24.58
2018-07-27T11:39:08.748Z,26.82
2018-07-27T11:42:06.372Z,27.53
2018-07-27T11:45:03.968Z,27.47
2018-07-27T11:48:01.670Z,28.26
2018-07-27T11:50:59.792Z,27.23
2018-07-27T11:53:57.760Z,24.78
2018-07-27T11:56:55.499Z,24.22
2018-07-27T11:59:52.864Z,26.86
2018-07-27T12:02:50.705Z,27.17
2018-07-27T12:05:47.847Z,26.19
2018-07-27T12:08:45.216Z,25.98
2018-07-27T12:11:42.727Z,26.79
2018-07-27T12:14:40.277Z,27.03
2018-07-27T12:17:37.231Z,27.25
2018-07-27T12:20:34.609Z,26.27
2018-07-27T12:23:32.216Z,28.18
2018-07-27T12:26:29.788Z,27.65
2018-07-27T12:29:27.528Z,27.54
2018-07-27T12:32:24.955Z,28.62
2018-07-27T12:35:23.011Z,28.54
2018-07-27T12:38:21.076Z,27.58
2018-07-27T12:41:19.144Z,28.32
2018-07-27T12:44:16.824Z,27.87
2018-07-27T12:47:13.955Z,27.81
2018-07-27T12:50:11.460Z,27.65
2018-07-27T12:53:09.405Z,27.89
2018-07-27T12:56:07.768Z,28.04
2018-07-27T12:59:05.678Z,27.92
2018-07-27T13:02:03.523Z,28.30
2018-07-27T13:05:01.168Z,27.35
2018-07-27T13:07:59.008Z,28.33
2018-07-27T13:10:57.037Z,28.21
2018-07-27T13:13:54.398Z,28.82
2018-07-27T13:16:51.780Z,28.14
2018-07-27T13:19:49.578Z,28.81
2018-07-27T13:22:46.896Z,29.82
2018-07-27T13:25:44.464Z,29.27
2018-07-27T13:28:41.655Z,28.76
2018-07-27T13:32:12.340Z,29.47
2018-07-27T13:35:09.928Z,28.30
2018-07-27T13:38:07.853Z,27.78
2018-07-27T13:41:05.281Z,27.05
2018-07-27T13:44:03.299Z,25.58
2018-07-27T13:47:00.394Z,25.50
2018-07-27T13:49:58.423Z,24.81
2018-07-27T13:52:55.455Z,26.95
2018-07-27T13:56:01.785Z,26.71
2018-07-27T13:58:59.072Z,26.21
2018-07-27T14:01:57.269Z,26.40
2018-07-27T14:04:55.099Z,26.22
2018-07-27T14:07:52.131Z,26.99
2018-07-27T14:10:49.716Z,25.83
2018-07-27T14:13:47.764Z,26.41
2018-07-27T14:16:45.387Z,26.25
2018-07-27T14:19:42.954Z,26.96
2018-07-27T14:22:40.520Z,25.97
2018-07-27T14:25:38.155Z,26.34
2018-07-27T14:28:35.620Z,27.03
2018-07-27T14:31:32.833Z,27.13
2018-07-27T14:34:30.837Z,27.18
2018-07-27T14:37:28.047Z,26.77
2018-07-27T14:40:25.371Z,27.29
2018-07-27T14:43:23.472Z,26.16
2018-07-27T14:46:21.639Z,25.84
2018-07-27T14:49:19.874Z,27.12
2018-07-27T14:52:17.514Z,26.46
2018-07-27T14:55:14.924Z,27.24
2018-07-27T14:58:13.530Z,26.69
2018-07-27T15:01:11.208Z,26.08
2018-07-27T15:04:08.321Z,27.39
2018-07-27T15:07:05.427Z,26.08
2018-07-27T15:10:03.399Z,26.38
2018-07-27T15:13:01.547Z,25.12
2018-07-27T15:15:58.957Z,26.05
2018-07-27T15:18:56.590Z,27.22
2018-07-27T15:21:54.520Z,26.93
2018-07-27T15:24:52.408Z,26.11
2018-07-27T15:27:49.960Z,26.76
2018-07-27T15:30:47.167Z,26.91
2018-07-27T15:33:44.295Z,26.58
2018-07-27T15:36:42.048Z,26.37
2018-07-27T15:39:39.464Z,27.41
2018-07-27T15:42:37.319Z,26.54
2018-07-27T15:45:34.556Z,27.53
2018-07-27T15:48:31.833Z,27.14
2018-07-27T15:51:29.432Z,27.12
2018-07-27T15:54:27.499Z,27.03
2018-07-27T15:57:24.793Z,26.30
2018-07-27T16:00:22.374Z,26.62
2018-07-27T16:03:20.243Z,27.46
2018-07-27T16:06:17.591Z,26.75
2018-07-27T16:09:16.030Z,26.45
2018-07-27T16:12:13.439Z,26.98
2018-07-27T16:15:10.384Z,27.67
2018-07-27T16:18:08.356Z,27.17
2018-07-27T16:21:05.514Z,27.21
2018-07-27T16:24:03.516Z,27.39
2018-07-27T16:27:01.315Z,26.97
2018-07-27T16:29:59.031Z,26.97
2018-07-27T16:32:57.095Z,27.42
2018-07-27T16:35:55.209Z,27.35
2018-07-27T16:38:52.782Z,27.59
2018-07-27T16:41:50.409Z,27.50
2018-07-27T16:44:47.473Z,26.80
2018-07-27T16:47:44.932Z,26.62
2018-07-27T16:50:42.359Z,27.49
2018-07-27T16:53:39.678Z,27.79
2018-07-27T16:56:37.208Z,27.23
2018-07-27T16:59:34.416Z,27.93
2018-07-27T17:02:32.142Z,28.62
2018-07-27T17:05:29.314Z,28.45
2018-07-27T17:08:27.075Z,29.70
2018-07-27T17:11:24.685Z,30.19
2018-07-27T17:14:22.358Z,30.65
2018-07-27T17:17:19.690Z,29.79
2018-07-27T17:20:17.563Z,30.96
2018-07-27T17:23:15.292Z,30.57
2018-07-27T17:26:12.597Z,30.45
2018-07-27T17:29:10.655Z,30.42
2018-07-27T17:32:08.626Z,31.10
2018-07-27T17:35:06.531Z,31.41
2018-07-27T17:38:03.996Z,32.19
2018-07-27T17:41:01.724Z,32.00
2018-07-27T17:43:58.995Z,32.67
2018-07-27T17:46:56.960Z,32.37
2018-07-27T17:49:53.932Z,32.39
2018-07-27T17:52:51.153Z,32.97
2018-07-27T17:55:49.083Z,31.86
2018-07-27T17:58:46.905Z,32.74
2018-07-27T18:01:44.155Z,33.06
2018-07-27T18:04:41.597Z,32.89
2018-07-27T18:07:39.377Z,33.11
2018-07-27T18:10:36.972Z,32.55
2018-07-27T18:13:34.755Z,33.72
2018-07-27T18:16:31.800Z,32.81
2018-07-27T18:19:29.572Z,33.49
2018-07-27T18:22:27.290Z,32.85
2018-07-27T18:25:25.631Z,33.00
2018-07-27T18:28:23.628Z,34.67
2018-07-27T18:31:21.887Z,34.10
2018-07-27T18:34:20.016Z,34.26
2018-07-27T18:37:18.239Z,33.31
2018-07-27T18:40:16.596Z,33.77
2018-07-27T18:43:14.314Z,34.31
2018-07-27T18:46:11.969Z,33.60
2018-07-27T18:49:09.392Z,34.37
2018-07-27T18:52:07.416Z,34.22
2018-07-27T18:55:05.492Z,34.61
2018-07-27T18:58:02.858Z,33.74
2018-07-27T19:01:00.588Z,34.60
2018-07-27T19:03:57.673Z,34.81
2018-07-27T19:06:54.766Z,35.26
2018-07-27T19:09:52.246Z,35.68
2018-07-27T19:12:49.686Z,35.33
2018-07-27T19:15:47.571Z,35.49
2018-07-27T19:18:44.690Z,36.09
2018-07-27T19:21:42.200Z,35.70
2018-07-27T19:24:39.888Z,35.93
2018-07-27T19:27:37.359Z,36.14
2018-07-27T19:30:35.104Z,36.11
2018-07-27T19:33:32.381Z,36.57
2018-07-27T19:36:29.700Z,36.15
2018-07-27T19:39:29.148Z,36.39
2018-07-27T19:42:26.283Z,36.39
2018-07-27T19:45:24.374Z,36.27
2018-07-27T19:48:21.714Z,36.61
2018-07-27T19:51:19.587Z,36.76
2018-07-27T19:54:17.523Z,36.92
2018-07-27T19:57:14.924Z,37.17
2018-07-27T20:00:12.348Z,37.13
2018-07-27T20:03:10.447Z,37.20
2018-07-27T20:06:08.059Z,37.12
2018-07-27T20:09:05.276Z,37.06
2018-07-27T20:12:03.176Z,37.62
2018-07-27T20:15:01.041Z,38.13
2018-07-27T20:17:59.084Z,37.35
2018-07-27T20:20:56.264Z,38.22
2018-07-27T20:23:53.540Z,38.06
2018-07-27T20:26:51.276Z,38.41
2018-07-27T20:29:48.952Z,38.97
2018-07-27T20:32:46.739Z,39.45
2018-07-27T20:35:44.910Z,38.99
2018-07-27T20:38:42.356Z,39.23
2018-07-27T20:41:40.053Z,39.47
2018-07-27T20:44:37.751Z,39.57
2018-07-27T20:47:35.496Z,40.11
2018-07-27T20:50:33.067Z,40.01
2018-07-27T20:53:30.847Z,40.12
2018-07-27T20:56:28.892Z,40.14
2018-07-27T20:59:26.015Z,40.21
2018-07-27T21:02:23.943Z,40.76
2018-07-27T21:05:21.955Z,40.40
2018-07-27T21:08:19.238Z,40.60
2018-07-27T21:11:17.473Z,41.24
2018-07-27T21:14:14.552Z,41.57
2018-07-27T21:17:12.561Z,41.87
2018-07-27T21:20:09.794Z,42.19
2018-07-27T21:23:07.844Z,41.84
2018-07-27T21:26:05.903Z,42.55
2018-07-27T21:29:03.049Z,43.08
2018-07-27T21:32:00.995Z,42.59
2018-07-27T21:34:58.250Z,43.04
2018-07-27T21:37:56.330Z,42.33
2018-07-27T21:40:54.318Z,43.14
2018-07-27T21:43:51.571Z,42.78
2018-07-27T21:46:49.730Z,44.03
2018-07-27T21:49:47.087Z,43.90
2018-07-27T21:52:44.344Z,43.27
2018-07-27T21:55:42.437Z,44.89
2018-07-27T21:58:40.583Z,45.60
2018-07-27T22:01:37.749Z,44.29
2018-07-27T22:04:35.948Z,44.06
2018-07-27T22:07:33.352Z,44.54
2018-07-27T22:10:32.179Z,44.19
2018-07-27T22:13:30.320Z,44.85
2018-07-27T22:16:28.165Z,44.83
2018-07-27T22:19:26.191Z,44.55
2018-07-27T22:22:24.208Z,44.30
2018-07-27T22:25:22.372Z,44.54
2018-07-27T22:28:20.256Z,44.70
2018-07-27T22:31:18.297Z,45.60
2018-07-27T22:34:16.456Z,45.67
2018-07-27T22:37:13.484Z,45.17
2018-07-27T22:40:11.574Z,45.39
2018-07-27T22:43:09.447Z,45.73
2018-07-27T22:46:07.484Z,46.20
2018-07-27T22:49:05.671Z,45.24
2018-07-27T22:52:03.539Z,46.07
2018-07-27T22:55:00.802Z,45.83
2018-07-27T22:57:58.851Z,46.39
2018-07-27T23:00:56.181Z,45.72
2018-07-27T23:03:53.169Z,46.51
2018-07-27T23:06:50.362Z,46.26
2018-07-27T23:09:48.355Z,46.03
2018-07-27T23:12:46.080Z,46.62
2018-07-27T23:15:43.973Z,46.70
2018-07-27T23:18:41.409Z,47.20
2018-07-27T23:21:38.919Z,46.78
2018-07-27T23:24:36.989Z,47.58
2018-07-27T23:27:34.911Z,46.93
2018-07-27T23:30:32.793Z,46.63
2018-07-27T23:33:29.843Z,47.09
2018-07-27T23:36:27.752Z,48.02
2018-07-27T23:39:25.643Z,47.81
2018-07-27T23:42:23.402Z,47.04
2018-07-27T23:45:22.187Z,47.21
2018-07-27T23:48:20.032Z,47.61
2018-07-27T23:51:18.000Z,47.55
2018-07-27T23:54:15.868Z,47.73
2018-07-27T23:57:13.962Z,47.99
